Decoded Metar for PALH (ANCHORAGE/LAKE H in AK, USA) (IATA:LHD) | Meteo·Mobile Aviation Weather
aviador You're here:

PALH Decoded Metar

ANCHORAGE/LAKE H in AK, USA
Report Time2019-02-17 14:53:00
UTC Time2019-02-17 15:46:02
Flight Rules vfr VFR
Wind360° at 08 kt
W.Decomp.*RWY 32: 7.7 kt HW 2.1 kt RCW
Visibility9999 m
Phenomena:N/A
Clouds:Overcast 080 Hf
Expected CloudBase > 400 ft AGL from Temp-Dew spread
Ceiling8,000 ft
Temp-6°C (ISA -21)
Dew Point-7°C (93% RH)
AAT-11.7°C
QNH1018 hPa
Density Alt-2,635 ft
Elevation72 ft
Report Wrong Elevation
Raw Report
PALH 171453Z 36008KT 10SM OVC080 M06/M07 A3005 RMK AO2 SNE25
SLP177 P0000 60000 T10561072 58031 $=

Extra information for PALH:More info

Metar Taf Metar & Taf Last 4 Metars F.Rules Stats Wind Profile Meteogram Temp Stats Airport Information Weather charts Add Link Nearby VenuesMetar ALERT Operation Metar Decoded Social comments

AIRNAV info for PALH